Puntarenas, Costa Rica
Current Conditions -  °F | °C
As of 4:00 AM on Sunday 21 Dec 2014 (Local Time) from MROC Reporting Station
Clear Clear  
Wind Chill: 64°   Ceiling: Unl
Heat Index: 64°   Visibility: 6mi
Dew Point: 57°   Wind: 5mph
Humidity: 77%   Direction: 70°ENE
Pressure: 30"   Gusts: NA
Location:  9.58°N, 84.5°W
Report Text: MROC 211000Z 07004KT CAVOK 18/14 A3000 NOSIG
Loading
Personal Weather Stations






























Interactive Weather Map New forecast layout! Learn more

10-Day Weather Forecast

Advertisements
Track Severe Weather on mobile